Port Republic, Maryland
Current Conditions -  °F | °C
As of 2:59 PM on Saturday 25 Oct 2014 (Local Time) from K2W6 Reporting Station
Clear Clear  
Wind Chill: 68°   Ceiling: Unl
Heat Index: 68°   Visibility: 10mi
Dew Point: 37°   Wind: 12mph
Humidity: 33%   Direction: 250°WSW
Pressure: 29.84"   Gusts: NA
Location:  38.5°N, 76.53°W
Report Text: K2W6 251859Z AUTO 25010KT 10SM CLR 20/03 A2984 RMK AO1
Loading
Personal Weather Stations






























Interactive Weather Map
Tropical Storm Tracking
New forecast layout! Learn more

10-Day Weather Forecast

Advertisements
Track Severe Weather on mobile